Aeroporto :
LOGIN :

Iscrizione | Disclaimer

   EN    FR    IT 

 










Sommario :    VFR   VFR Marginale   IFR   IFR Intensivo   IFR Molto Intensivo
Visibilità : 
Base nubi : 
>= 8 km
>= 3000ft
5 / 8 km
1000 / 3000 ft
1500m / 5 km
500 / 1000 ft
800 / 1500m
200 / 500 ft
< 800m
< 200 ft
Simboli :   Temporali  Nebbia  Neve Forte  Precipitazioni Forti  Vento > 20 kt
SIGMETs :   Varie  Temporali  Ghiacco  Turbolenza  Onda orograficha  Ceneri Vulcaniche






- Altitudine del aeroporto : 456 ft
- Codice IATA : QPZ


LIMS - San Damiano Air Base Piacenza

ULTIMO METAR :
  • 291555Z 24002KT CAVOK 12/M02 Q1010 RMK FEW FEW200 VIS MIN 9999 WIND THR30 26003KT BLU

METARs OBSOLETI :
  • 291455Z 33008KT CAVOK 13/M08 Q1010 RMK SKC VIS MIN 9999 WIND THR30 29010KT BLU
  • 291355Z 33008KT 290V010 CAVOK 14/M08 Q1009 RMK SKC VIS MIN 9999 WIND THR30 29008KT BLU

Previsioni scadute.



MetMap, La meteo Aeronautica in un colpo d'occhio ! - Copyright ORBIFLY Dicembre 2007 - Disclaimer

ORBIFLY MET'MAP TEAM :

Programmazione e sviluppo : Alexandra Zaïnal
Concezione : Baudouin d'Aumeries
Aiuto per la programmazione : Marc-Olivier Méhu
Supporto tecnico e logistico : Manuel Goepfert
Aiuto per la traduzione : Arnaldo La Scala

Contatto : metmap@orbifly.com




FONTI E CREDITI :

   NOAA